createdAt,value
2019-01-31T00:02:13.129Z,24.47
2019-01-31T00:05:16.457Z,20.87
2019-01-31T00:07:54.242Z,19.53
2019-01-31T00:10:31.698Z,21.50
2019-01-31T00:13:06.097Z,21.17
2019-01-31T00:15:43.597Z,19.67
2019-01-31T00:18:15.328Z,20.10
2019-01-31T00:20:52.753Z,19.80
2019-01-31T00:23:39.409Z,18.83
2019-01-31T00:26:19.972Z,18.60
2019-01-31T00:29:00.754Z,20.20
2019-01-31T00:31:47.848Z,20.80
2019-01-31T00:34:31.862Z,20.27
2019-01-31T00:37:06.464Z,20.03
2019-01-31T00:39:44.057Z,19.80
2019-01-31T00:42:24.612Z,19.70
2019-01-31T00:45:01.865Z,19.00
2019-01-31T00:47:45.636Z,20.17
2019-01-31T00:50:41.001Z,18.73
2019-01-31T00:53:38.287Z,18.93
2019-01-31T00:56:21.660Z,17.90
2019-01-31T00:59:05.638Z,18.17
2019-01-31T01:01:39.857Z,18.20
2019-01-31T01:04:28.195Z,18.20
2019-01-31T01:07:22.596Z,18.10
2019-01-31T01:09:57.716Z,18.67
2019-01-31T01:12:38.058Z,19.37
2019-01-31T01:15:26.638Z,18.53
2019-01-31T01:17:58.274Z,18.73
2019-01-31T01:20:30.150Z,19.17
2019-01-31T01:23:07.760Z,18.30
2019-01-31T01:25:55.238Z,20.17
2019-01-31T01:28:47.334Z,19.00
2019-01-31T01:31:24.538Z,19.43
2019-01-31T01:34:14.472Z,20.23
2019-01-31T01:37:04.471Z,19.50
2019-01-31T01:39:51.365Z,19.20
2019-01-31T01:42:23.129Z,22.10
2019-01-31T01:45:10.984Z,18.70
2019-01-31T01:47:45.482Z,20.37
2019-01-31T01:50:26.046Z,19.53
2019-01-31T01:53:00.480Z,20.23
2019-01-31T01:55:48.814Z,20.67
2019-01-31T01:58:35.744Z,21.30
2019-01-31T02:01:07.569Z,21.77
2019-01-31T02:03:48.318Z,21.60
2019-01-31T02:06:22.760Z,22.00
2019-01-31T02:09:14.404Z,21.47
2019-01-31T02:11:48.834Z,21.50
2019-01-31T02:14:48.034Z,19.33
2019-01-31T02:17:46.810Z,19.57
2019-01-31T02:20:38.030Z,21.03
2019-01-31T02:23:22.028Z,20.60
2019-01-31T02:26:00.081Z,22.17
2019-01-31T02:28:37.580Z,21.30
2019-01-31T02:31:25.660Z,20.87
2019-01-31T02:34:27.844Z,20.43
2019-01-31T02:37:05.286Z,20.70
2019-01-31T02:39:46.056Z,22.17
2019-01-31T02:42:21.162Z,19.97
2019-01-31T02:45:15.770Z,22.13
2019-01-31T02:48:06.954Z,22.00
2019-01-31T02:50:38.788Z,22.03
2019-01-31T02:53:10.622Z,21.40
2019-01-31T02:55:51.278Z,20.40
2019-01-31T02:58:45.220Z,22.03
2019-01-31T03:01:19.770Z,23.17
2019-01-31T03:04:07.752Z,20.90
2019-01-31T03:07:14.498Z,19.20
2019-01-31T03:09:54.890Z,21.83
2019-01-31T03:12:40.133Z,21.73
2019-01-31T03:15:29.296Z,21.73
2019-01-31T03:18:10.025Z,20.50
2019-01-31T03:20:50.620Z,20.87
2019-01-31T03:23:36.570Z,21.87
2019-01-31T03:26:24.769Z,23.37
2019-01-31T03:29:02.433Z,22.57
2019-01-31T03:31:55.325Z,21.13
2019-01-31T03:34:29.949Z,21.77
2019-01-31T03:37:22.672Z,22.10
2019-01-31T03:40:06.922Z,23.50
2019-01-31T03:42:36.088Z,23.10
2019-01-31T03:45:13.599Z,23.33
2019-01-31T03:47:48.455Z,22.80
2019-01-31T03:50:23.020Z,23.40
2019-01-31T03:52:54.882Z,21.90
2019-01-31T03:55:38.700Z,22.27
2019-01-31T03:58:27.430Z,22.07
2019-01-31T04:01:15.912Z,21.03
2019-01-31T04:03:52.738Z,20.10
2019-01-31T04:06:24.615Z,20.77
2019-01-31T04:08:53.324Z,22.57
2019-01-31T04:11:22.292Z,22.43
2019-01-31T04:13:50.949Z,23.10
2019-01-31T04:16:19.756Z,24.07
2019-01-31T04:18:48.306Z,23.87
2019-01-31T04:21:17.352Z,24.50
2019-01-31T04:23:45.908Z,23.70
2019-01-31T04:26:14.552Z,25.00
2019-01-31T04:28:43.121Z,23.50
2019-01-31T04:31:11.747Z,23.47
2019-01-31T04:33:40.589Z,24.77
2019-01-31T04:36:09.152Z,22.93
2019-01-31T04:38:38.154Z,25.30
2019-01-31T04:41:06.774Z,23.63
2019-01-31T04:43:35.459Z,24.37
2019-01-31T04:46:04.157Z,25.77
2019-01-31T04:48:32.897Z,24.03
2019-01-31T04:51:01.580Z,23.37
2019-01-31T04:53:30.140Z,23.20
2019-01-31T04:55:58.703Z,26.70
2019-01-31T04:58:27.638Z,24.50
2019-01-31T05:00:58.918Z,23.73
2019-01-31T05:03:27.658Z,25.20
2019-01-31T05:05:56.299Z,26.57
2019-01-31T05:08:24.855Z,24.23
2019-01-31T05:10:53.722Z,25.30
2019-01-31T05:13:22.921Z,26.90
2019-01-31T05:15:51.624Z,26.20
2019-01-31T05:18:20.182Z,26.87
2019-01-31T05:20:48.880Z,25.60
2019-01-31T05:23:17.445Z,23.97
2019-01-31T05:25:46.249Z,25.50
2019-01-31T05:28:14.794Z,25.77
2019-01-31T05:30:43.631Z,26.80
2019-01-31T05:33:13.236Z,25.23
2019-01-31T05:35:42.024Z,24.87
2019-01-31T05:38:10.674Z,27.87
2019-01-31T05:40:39.694Z,27.50
2019-01-31T05:43:08.334Z,25.73
2019-01-31T05:45:37.002Z,26.70
2019-01-31T05:48:05.648Z,27.00
2019-01-31T05:50:34.431Z,24.33
2019-01-31T05:53:02.990Z,24.90
2019-01-31T05:55:31.805Z,25.80
2019-01-31T05:58:00.369Z,25.33
2019-01-31T06:00:30.565Z,26.20
2019-01-31T06:02:59.290Z,26.13
2019-01-31T06:05:27.909Z,25.20
2019-01-31T06:07:58.143Z,23.60
2019-01-31T06:10:26.989Z,23.10
2019-01-31T06:12:55.560Z,26.17
2019-01-31T06:15:24.579Z,29.43
2019-01-31T06:17:53.200Z,27.97
2019-01-31T06:20:24.617Z,23.27
2019-01-31T06:22:53.240Z,24.17
2019-01-31T06:25:22.202Z,27.00
2019-01-31T06:27:50.894Z,25.70
2019-01-31T06:30:19.965Z,28.60
2019-01-31T06:32:48.908Z,30.27
2019-01-31T06:35:17.966Z,27.80
2019-01-31T06:37:46.524Z,28.27
2019-01-31T06:40:20.434Z,27.07
2019-01-31T06:42:49.254Z,29.20
2019-01-31T06:45:20.685Z,28.10
2019-01-31T06:47:49.616Z,28.57
2019-01-31T06:50:18.672Z,28.70
2019-01-31T06:52:47.240Z,25.93
2019-01-31T06:55:16.177Z,25.90
2019-01-31T06:57:44.750Z,26.07
2019-01-31T07:00:19.493Z,25.60
2019-01-31T07:02:48.608Z,25.47
2019-01-31T07:05:17.644Z,26.40
2019-01-31T07:07:46.196Z,25.43
2019-01-31T07:10:20.947Z,27.10
2019-01-31T07:12:49.519Z,26.73
2019-01-31T07:15:18.323Z,28.37
2019-01-31T07:17:46.967Z,27.90
2019-01-31T07:20:17.260Z,29.30
2019-01-31T07:22:46.639Z,30.93
2019-01-31T07:25:21.252Z,29.50
2019-01-31T07:27:49.830Z,28.80
2019-01-31T07:30:21.262Z,30.10
2019-01-31T07:32:50.601Z,28.97
2019-01-31T07:35:19.397Z,30.33
2019-01-31T07:37:49.604Z,29.83
2019-01-31T07:40:20.514Z,33.27
2019-01-31T07:42:49.430Z,34.03
2019-01-31T07:45:23.190Z,32.57
2019-01-31T07:47:52.350Z,33.70
2019-01-31T07:50:21.305Z,35.43
2019-01-31T07:52:50.116Z,27.80
2019-01-31T07:55:19.528Z,26.37
2019-01-31T07:57:48.702Z,26.80
2019-01-31T08:00:22.129Z,26.47
2019-01-31T08:02:51.002Z,28.00
2019-01-31T08:05:23.979Z,28.30
2019-01-31T08:07:54.675Z,28.80
2019-01-31T08:10:26.605Z,28.77
2019-01-31T08:12:55.330Z,33.90
2019-01-31T08:15:24.262Z,33.87
2019-01-31T08:17:52.887Z,34.87
2019-01-31T08:20:21.840Z,32.63
2019-01-31T08:22:50.471Z,30.43
2019-01-31T08:25:21.699Z,32.90
2019-01-31T08:27:51.997Z,30.23
2019-01-31T08:30:23.582Z,34.70
2019-01-31T08:32:52.446Z,31.07
2019-01-31T08:35:21.532Z,31.30
2019-01-31T08:37:50.281Z,31.27
2019-01-31T08:40:18.907Z,32.13
2019-01-31T08:42:47.797Z,31.37
2019-01-31T08:45:16.610Z,30.47
2019-01-31T08:47:45.364Z,29.33
2019-01-31T08:50:19.940Z,29.17
2019-01-31T08:52:49.299Z,29.17
2019-01-31T08:55:18.111Z,31.03
2019-01-31T08:57:47.756Z,30.47
2019-01-31T09:00:24.579Z,31.17
2019-01-31T09:02:53.462Z,32.97
2019-01-31T09:05:22.339Z,32.87
2019-01-31T09:07:51.108Z,33.30
2019-01-31T09:10:25.529Z,30.67
2019-01-31T09:12:54.228Z,31.47
2019-01-31T09:15:24.687Z,30.77
2019-01-31T09:17:53.453Z,26.90
2019-01-31T09:20:41.693Z,29.50
2019-01-31T09:23:19.609Z,26.60
2019-01-31T09:26:06.319Z,28.20
2019-01-31T09:28:43.750Z,28.63
2019-01-31T09:31:24.390Z,24.47
2019-01-31T09:34:17.385Z,29.03
2019-01-31T09:36:51.846Z,24.97
2019-01-31T09:39:23.479Z,29.80
2019-01-31T09:42:03.972Z,27.00
2019-01-31T09:45:01.176Z,27.77
2019-01-31T09:47:36.567Z,26.70
2019-01-31T09:50:20.373Z,26.67
2019-01-31T09:53:25.340Z,25.50
2019-01-31T09:56:22.707Z,26.23
2019-01-31T09:59:00.273Z,25.57
2019-01-31T10:02:05.337Z,25.30
2019-01-31T10:04:46.101Z,26.10
2019-01-31T10:07:20.375Z,26.30
2019-01-31T10:10:04.590Z,22.57
2019-01-31T10:12:41.701Z,22.43
2019-01-31T10:15:32.581Z,21.00
2019-01-31T10:18:12.946Z,20.30
2019-01-31T10:21:19.603Z,22.13
2019-01-31T10:24:06.540Z,18.70
2019-01-31T10:26:41.545Z,19.33
2019-01-31T10:29:34.549Z,18.27
2019-01-31T10:32:06.430Z,17.23
2019-01-31T10:34:53.256Z,16.27
2019-01-31T10:37:30.989Z,15.90
2019-01-31T10:40:17.427Z,14.07
2019-01-31T10:43:05.005Z,13.93
2019-01-31T10:45:48.639Z,14.70
2019-01-31T10:48:53.508Z,11.60
2019-01-31T10:51:30.883Z,12.13
2019-01-31T10:54:18.917Z,13.40
2019-01-31T10:57:02.541Z,10.30
2019-01-31T10:59:36.897Z,7.57
2019-01-31T11:02:31.547Z,6.80
2019-01-31T11:05:22.833Z,5.47
2019-01-31T11:08:00.673Z,5.53
2019-01-31T11:10:41.501Z,5.77
2019-01-31T11:13:31.679Z,5.00
2019-01-31T11:16:06.480Z,5.63
2019-01-31T11:18:47.221Z,4.30
2019-01-31T11:21:35.163Z,6.27
2019-01-31T11:24:25.957Z,4.70
2019-01-31T11:27:00.703Z,6.87
2019-01-31T11:29:35.182Z,6.67
2019-01-31T11:32:31.341Z,6.77
2019-01-31T11:35:21.151Z,7.33
2019-01-31T11:38:07.242Z,6.17
2019-01-31T11:40:41.727Z,6.80
2019-01-31T11:43:35.058Z,7.33
2019-01-31T11:46:15.455Z,7.37
2019-01-31T11:48:50.044Z,7.10
2019-01-31T11:51:55.419Z,6.90
2019-01-31T11:54:55.173Z,5.93
2019-01-31T11:57:44.202Z,6.40
2019-01-31T12:00:17.486Z,5.37
2019-01-31T12:02:54.786Z,5.93
2019-01-31T12:05:16.624Z,5.70
2019-01-31T12:07:45.713Z,6.47
2019-01-31T12:10:14.534Z,5.77
2019-01-31T12:12:43.861Z,5.90
2019-01-31T12:15:12.992Z,4.37
2019-01-31T12:17:41.889Z,4.90
2019-01-31T12:20:16.082Z,5.13
2019-01-31T12:22:45.197Z,4.73
2019-01-31T12:25:14.249Z,5.10
2019-01-31T12:27:43.181Z,4.70
2019-01-31T12:30:14.904Z,5.60
2019-01-31T12:32:44.033Z,5.07
2019-01-31T12:35:12.931Z,6.17
2019-01-31T12:37:41.814Z,6.23
2019-01-31T12:40:13.749Z,6.50
2019-01-31T12:42:42.866Z,6.00
2019-01-31T12:45:14.372Z,7.37
2019-01-31T12:47:43.317Z,6.13
2019-01-31T12:50:17.560Z,6.93
2019-01-31T12:52:46.425Z,10.50
2019-01-31T12:55:15.039Z,6.83
2019-01-31T12:57:43.998Z,8.07
2019-01-31T13:00:18.569Z,7.33
2019-01-31T13:02:47.929Z,6.77
2019-01-31T13:05:16.746Z,5.80
2019-01-31T13:07:46.047Z,6.23
2019-01-31T13:10:15.405Z,6.83
2019-01-31T13:12:48.903Z,7.33
2019-01-31T13:15:16.731Z,7.03
2019-01-31T13:17:45.974Z,7.80
2019-01-31T13:20:17.714Z,8.10
2019-01-31T13:22:47.034Z,8.77
2019-01-31T13:25:16.125Z,6.87
2019-01-31T13:27:45.117Z,7.60
2019-01-31T13:30:16.785Z,7.40
2019-01-31T13:32:46.199Z,7.30
2019-01-31T13:35:16.374Z,6.87
2019-01-31T13:37:45.185Z,6.60
2019-01-31T13:40:22.152Z,7.73
2019-01-31T13:42:51.727Z,7.37
2019-01-31T13:45:28.583Z,6.47
2019-01-31T13:47:59.915Z,7.13
2019-01-31T13:50:28.822Z,8.83
2019-01-31T13:52:57.689Z,9.97
2019-01-31T13:55:28.989Z,10.53
2019-01-31T13:57:57.707Z,12.90
2019-01-31T14:00:26.615Z,10.80
2019-01-31T14:02:55.710Z,12.23
2019-01-31T14:05:25.717Z,12.13
2019-01-31T14:07:54.799Z,11.47
2019-01-31T14:10:25.439Z,13.83
2019-01-31T14:12:54.343Z,14.00
2019-01-31T14:15:33.881Z,13.83
2019-01-31T14:18:01.943Z,14.90
2019-01-31T14:20:30.850Z,14.77
2019-01-31T14:22:59.495Z,14.23
2019-01-31T14:25:28.622Z,14.50
2019-01-31T14:27:57.255Z,14.00
2019-01-31T14:30:29.077Z,13.07
2019-01-31T14:32:58.511Z,14.23
2019-01-31T14:35:28.084Z,14.93
2019-01-31T14:37:57.097Z,13.67
2019-01-31T14:40:26.572Z,14.27
2019-01-31T14:42:56.399Z,15.53
2019-01-31T14:45:25.692Z,13.77
2019-01-31T14:47:55.875Z,13.10
2019-01-31T14:50:35.563Z,13.73
2019-01-31T14:53:04.813Z,14.43
2019-01-31T14:55:33.947Z,13.90
2019-01-31T14:58:02.839Z,14.40
2019-01-31T15:00:33.366Z,16.10
2019-01-31T15:03:05.325Z,15.30
2019-01-31T15:05:36.619Z,14.80
2019-01-31T15:08:04.969Z,14.77
2019-01-31T15:10:34.370Z,15.03
2019-01-31T15:13:02.916Z,14.80
2019-01-31T15:15:34.537Z,13.33
2019-01-31T15:18:03.173Z,14.33
2019-01-31T15:20:42.834Z,14.40
2019-01-31T15:23:11.543Z,13.20
2019-01-31T15:25:40.502Z,14.03
2019-01-31T15:28:09.205Z,14.77
2019-01-31T15:30:38.705Z,13.83
2019-01-31T15:33:10.015Z,13.40
2019-01-31T15:35:38.919Z,13.83
2019-01-31T15:38:07.739Z,13.10
2019-01-31T15:40:42.865Z,13.97
2019-01-31T15:43:12.098Z,14.87
2019-01-31T15:45:41.043Z,13.27
2019-01-31T15:48:10.780Z,14.83
2019-01-31T15:50:40.067Z,15.07
2019-01-31T15:53:09.366Z,12.50
2019-01-31T15:55:38.382Z,13.20
2019-01-31T15:58:07.179Z,12.70
2019-01-31T16:00:40.736Z,13.53
2019-01-31T16:03:11.452Z,12.83
2019-01-31T16:05:40.377Z,13.80
2019-01-31T16:08:09.882Z,13.60
2019-01-31T16:10:38.804Z,13.03
2019-01-31T16:13:07.805Z,13.93
2019-01-31T16:15:36.896Z,26.27
2019-01-31T16:18:07.711Z,14.30
2019-01-31T16:20:36.535Z,15.50
2019-01-31T16:23:05.634Z,13.17
2019-01-31T16:25:34.384Z,12.70
2019-01-31T16:28:03.096Z,12.87
2019-01-31T16:30:31.972Z,12.43
2019-01-31T16:33:00.558Z,12.43
2019-01-31T16:35:30.130Z,14.00
2019-01-31T16:37:58.744Z,15.03
2019-01-31T16:40:27.708Z,20.47
2019-01-31T16:42:56.344Z,19.63
2019-01-31T16:45:25.813Z,21.20
2019-01-31T16:47:54.450Z,19.87
2019-01-31T16:50:24.704Z,17.33
2019-01-31T16:52:53.659Z,18.83
2019-01-31T16:55:29.979Z,19.37
2019-01-31T16:57:59.172Z,18.77
2019-01-31T17:00:30.613Z,21.00
2019-01-31T17:02:59.311Z,16.80
2019-01-31T17:05:30.443Z,24.20
2019-01-31T17:07:59.544Z,20.77
2019-01-31T17:10:28.434Z,22.37
2019-01-31T17:12:57.927Z,24.37
2019-01-31T17:15:27.530Z,21.60
2019-01-31T17:17:56.324Z,20.40
2019-01-31T17:20:37.292Z,25.43
2019-01-31T17:23:06.002Z,21.63
2019-01-31T17:25:35.077Z,17.77
2019-01-31T17:28:03.646Z,19.80
2019-01-31T17:30:32.441Z,17.83
2019-01-31T17:33:04.093Z,18.87
2019-01-31T17:35:32.906Z,16.87
2019-01-31T17:38:01.538Z,15.30
2019-01-31T17:40:35.564Z,16.77
2019-01-31T17:43:05.130Z,17.63
2019-01-31T17:45:36.912Z,16.70
2019-01-31T17:48:06.504Z,16.17
2019-01-31T17:50:35.249Z,17.90
2019-01-31T17:53:04.138Z,17.83
2019-01-31T17:55:32.847Z,17.80
2019-01-31T17:58:01.922Z,17.00
2019-01-31T18:00:37.854Z,15.57
2019-01-31T18:03:07.657Z,16.93
2019-01-31T18:05:36.691Z,15.80
2019-01-31T18:08:09.150Z,17.73
2019-01-31T18:10:37.019Z,16.47
2019-01-31T18:13:05.848Z,17.63
2019-01-31T18:15:41.665Z,18.93
2019-01-31T18:18:05.764Z,17.87
2019-01-31T18:20:35.046Z,19.77
2019-01-31T18:23:06.655Z,18.20
2019-01-31T18:25:35.479Z,19.80
2019-01-31T18:28:04.456Z,22.60
2019-01-31T18:30:35.733Z,27.17
2019-01-31T18:33:05.435Z,22.43
2019-01-31T18:35:34.733Z,20.10
2019-01-31T18:38:03.290Z,20.77
2019-01-31T18:40:34.770Z,20.70
2019-01-31T18:43:03.481Z,21.47
2019-01-31T18:45:38.093Z,19.43
2019-01-31T18:48:07.022Z,22.80
2019-01-31T18:50:39.138Z,22.17
2019-01-31T18:53:08.506Z,21.50
2019-01-31T18:55:37.348Z,21.17
2019-01-31T18:58:06.866Z,26.60
2019-01-31T19:00:44.549Z,19.77
2019-01-31T19:03:13.301Z,21.53
2019-01-31T19:05:42.536Z,22.77
2019-01-31T19:08:11.178Z,20.83
2019-01-31T19:10:43.971Z,22.30
2019-01-31T19:13:10.372Z,19.53
2019-01-31T19:15:39.153Z,21.43
2019-01-31T19:18:07.875Z,21.03
2019-01-31T19:20:36.968Z,20.77
2019-01-31T19:23:07.479Z,20.10
2019-01-31T19:25:36.439Z,19.20
2019-01-31T19:28:06.443Z,23.83
2019-01-31T19:30:40.033Z,22.47
2019-01-31T19:33:08.924Z,22.30
2019-01-31T19:35:38.131Z,22.07
2019-01-31T19:38:07.734Z,20.10
2019-01-31T19:40:39.195Z,21.50
2019-01-31T19:43:07.918Z,20.77
2019-01-31T19:45:39.676Z,20.73
2019-01-31T19:48:08.984Z,22.90
2019-01-31T19:50:37.914Z,22.00
2019-01-31T19:53:06.799Z,23.17
2019-01-31T19:55:35.902Z,24.23
2019-01-31T19:58:05.198Z,25.33
2019-01-31T20:00:34.102Z,24.87
2019-01-31T20:03:07.008Z,22.07
2019-01-31T20:05:36.204Z,23.10
2019-01-31T20:08:06.493Z,24.37
2019-01-31T20:10:35.242Z,23.97
2019-01-31T20:13:04.245Z,24.90
2019-01-31T20:15:35.833Z,24.63
2019-01-31T20:18:05.003Z,24.70
2019-01-31T20:20:33.653Z,23.60
2019-01-31T20:23:02.709Z,26.20
2019-01-31T20:25:32.006Z,23.27
2019-01-31T20:28:00.636Z,22.67
2019-01-31T20:30:31.444Z,24.00
2019-01-31T20:33:01.794Z,23.93
2019-01-31T20:35:31.011Z,25.40
2019-01-31T20:38:00.405Z,26.07
2019-01-31T20:40:38.045Z,30.43
2019-01-31T20:43:08.960Z,28.67
2019-01-31T20:45:38.287Z,25.53
2019-01-31T20:48:07.406Z,28.23
2019-01-31T20:50:38.313Z,26.70
2019-01-31T20:53:07.691Z,26.93
2019-01-31T20:55:37.111Z,27.37
2019-01-31T20:58:06.536Z,25.67
2019-01-31T21:00:37.976Z,29.50
2019-01-31T21:03:08.280Z,28.17
2019-01-31T21:05:37.379Z,29.03
2019-01-31T21:08:08.128Z,28.13
2019-01-31T21:10:37.016Z,29.60
2019-01-31T21:13:06.973Z,31.97
2019-01-31T21:15:35.861Z,27.93
2019-01-31T21:18:05.486Z,35.90
2019-01-31T21:20:34.403Z,34.63
2019-01-31T21:23:04.237Z,31.13
2019-01-31T21:25:34.433Z,30.00
2019-01-31T21:28:03.521Z,30.10
2019-01-31T21:30:37.444Z,30.57
2019-01-31T21:33:07.909Z,31.07
2019-01-31T21:35:36.603Z,32.70
2019-01-31T21:38:05.988Z,31.73
2019-01-31T21:40:35.478Z,32.93
2019-01-31T21:43:05.184Z,34.53
2019-01-31T21:45:34.078Z,33.73
2019-01-31T21:48:02.964Z,33.37
2019-01-31T21:50:33.066Z,33.53
2019-01-31T21:53:02.187Z,33.33
2019-01-31T21:55:32.517Z,30.20
2019-01-31T21:58:01.317Z,32.20
2019-01-31T22:00:32.422Z,32.30
2019-01-31T22:03:01.178Z,31.47
2019-01-31T22:05:30.095Z,31.57
2019-01-31T22:07:59.222Z,31.17
2019-01-31T22:10:27.837Z,31.07
2019-01-31T22:12:56.562Z,30.70
2019-01-31T22:15:27.290Z,28.93
2019-01-31T22:17:59.742Z,35.67
2019-01-31T22:20:26.666Z,29.47
2019-01-31T22:22:55.832Z,32.20
2019-01-31T22:25:25.350Z,31.67
2019-01-31T22:27:54.442Z,28.83
2019-01-31T22:30:31.287Z,29.00
2019-01-31T22:33:00.537Z,27.97
2019-01-31T22:35:29.320Z,28.43
2019-01-31T22:37:58.400Z,28.80
2019-01-31T22:40:27.031Z,29.03
2019-01-31T22:42:55.798Z,26.87
2019-01-31T22:45:25.393Z,26.90
2019-01-31T22:47:54.201Z,29.30
2019-01-31T22:50:24.082Z,28.40
2019-01-31T22:52:52.887Z,28.67
2019-01-31T22:55:23.388Z,28.60
2019-01-31T22:57:52.500Z,28.07
2019-01-31T23:00:54.064Z,27.67
2019-01-31T23:03:23.597Z,29.87
2019-01-31T23:05:52.223Z,27.73
2019-01-31T23:08:21.026Z,30.33
2019-01-31T23:10:49.734Z,26.63
2019-01-31T23:13:19.214Z,28.30
2019-01-31T23:15:47.773Z,30.10
2019-01-31T23:18:16.491Z,30.53
2019-01-31T23:20:45.063Z,31.20
2019-01-31T23:23:13.755Z,27.00
2019-01-31T23:25:42.390Z,26.53
2019-01-31T23:28:11.020Z,28.13
2019-01-31T23:30:40.027Z,28.30
2019-01-31T23:33:08.660Z,43.93
2019-01-31T23:35:37.418Z,29.37
2019-01-31T23:38:06.206Z,29.77
2019-01-31T23:40:34.868Z,27.50
2019-01-31T23:43:03.701Z,29.27
2019-01-31T23:45:32.416Z,29.70
2019-01-31T23:48:05.797Z,30.37
2019-01-31T23:50:34.828Z,28.53
2019-01-31T23:53:03.464Z,27.80
2019-01-31T23:55:32.176Z,26.50
2019-01-31T23:58:01.090Z,28.27
